sensor_id;sensor_type;location;lat;lon;timestamp;P1;durP1;ratioP1;P2;durP2;ratioP2
45254;SDS011;30989;52.078;21.014;2023-07-29T00:01:36;7.60;;;3.47;;
45254;SDS011;30989;52.078;21.014;2023-07-29T00:04:02;6.82;;;3.95;;
45254;SDS011;30989;52.078;21.014;2023-07-29T00:06:27;11.18;;;3.75;;
45254;SDS011;30989;52.078;21.014;2023-07-29T00:08:53;7.93;;;3.97;;
45254;SDS011;30989;52.078;21.014;2023-07-29T00:11:19;8.15;;;4.32;;
45254;SDS011;30989;52.078;21.014;2023-07-29T00:13:44;8.90;;;4.00;;
45254;SDS011;30989;52.078;21.014;2023-07-29T00:16:10;11.32;;;3.65;;
45254;SDS011;30989;52.078;21.014;2023-07-29T00:18:35;7.65;;;3.67;;
45254;SDS011;30989;52.078;21.014;2023-07-29T00:21:01;6.97;;;3.92;;
45254;SDS011;30989;52.078;21.014;2023-07-29T00:23:26;7.90;;;4.07;;
45254;SDS011;30989;52.078;21.014;2023-07-29T00:25:52;7.60;;;4.10;;
45254;SDS011;30989;52.078;21.014;2023-07-29T00:28:17;6.57;;;3.92;;
45254;SDS011;30989;52.078;21.014;2023-07-29T00:30:43;12.18;;;4.05;;
45254;SDS011;30989;52.078;21.014;2023-07-29T00:33:09;5.28;;;3.30;;
45254;SDS011;30989;52.078;21.014;2023-07-29T00:35:34;9.45;;;3.58;;
45254;SDS011;30989;52.078;21.014;2023-07-29T00:38:00;5.55;;;3.47;;
45254;SDS011;30989;52.078;21.014;2023-07-29T00:40:27;5.57;;;3.17;;
45254;SDS011;30989;52.078;21.014;2023-07-29T00:42:53;7.70;;;3.20;;
45254;SDS011;30989;52.078;21.014;2023-07-29T00:45:19;6.85;;;3.15;;
45254;SDS011;30989;52.078;21.014;2023-07-29T00:47:45;5.30;;;3.38;;
45254;SDS011;30989;52.078;21.014;2023-07-29T00:50:11;6.20;;;3.70;;
45254;SDS011;30989;52.078;21.014;2023-07-29T00:52:37;4.78;;;2.63;;
45254;SDS011;30989;52.078;21.014;2023-07-29T00:55:03;5.20;;;2.90;;
45254;SDS011;30989;52.078;21.014;2023-07-29T00:57:30;5.40;;;3.28;;
45254;SDS011;30989;52.078;21.014;2023-07-29T00:59:55;5.75;;;2.70;;
45254;SDS011;30989;52.078;21.014;2023-07-29T01:02:21;6.68;;;3.15;;
45254;SDS011;30989;52.078;21.014;2023-07-29T01:04:52;5.70;;;3.13;;
45254;SDS011;30989;52.078;21.014;2023-07-29T01:10:46;5.28;;;2.90;;
45254;SDS011;30989;52.078;21.014;2023-07-29T01:16:03;9.60;;;3.08;;
45254;SDS011;30989;52.078;21.014;2023-07-29T01:18:41;7.68;;;3.35;;
45254;SDS011;30989;52.078;21.014;2023-07-29T01:21:10;5.35;;;3.00;;
45254;SDS011;30989;52.078;21.014;2023-07-29T01:23:36;9.63;;;3.40;;
45254;SDS011;30989;52.078;21.014;2023-07-29T01:26:02;6.78;;;3.55;;
45254;SDS011;30989;52.078;21.014;2023-07-29T01:28:29;9.10;;;3.72;;
45254;SDS011;30989;52.078;21.014;2023-07-29T01:31:12;5.70;;;3.42;;
45254;SDS011;30989;52.078;21.014;2023-07-29T01:34:03;5.00;;;3.10;;
45254;SDS011;30989;52.078;21.014;2023-07-29T01:36:32;5.10;;;3.47;;
45254;SDS011;30989;52.078;21.014;2023-07-29T01:39:05;9.60;;;4.50;;
45254;SDS011;30989;52.078;21.014;2023-07-29T01:41:30;6.28;;;3.33;;
45254;SDS011;30989;52.078;21.014;2023-07-29T01:43:56;8.70;;;3.97;;
45254;SDS011;30989;52.078;21.014;2023-07-29T01:46:22;8.90;;;4.68;;
45254;SDS011;30989;52.078;21.014;2023-07-29T01:48:48;7.50;;;3.78;;
45254;SDS011;30989;52.078;21.014;2023-07-29T01:51:13;6.43;;;3.95;;
45254;SDS011;30989;52.078;21.014;2023-07-29T01:53:39;5.13;;;3.25;;
45254;SDS011;30989;52.078;21.014;2023-07-29T01:56:04;8.80;;;4.68;;
45254;SDS011;30989;52.078;21.014;2023-07-29T01:58:31;8.05;;;4.00;;
45254;SDS011;30989;52.078;21.014;2023-07-29T02:00:56;10.35;;;4.88;;
45254;SDS011;30989;52.078;21.014;2023-07-29T02:03:30;9.52;;;4.05;;
45254;SDS011;30989;52.078;21.014;2023-07-29T02:05:55;8.88;;;5.05;;
45254;SDS011;30989;52.078;21.014;2023-07-29T02:08:21;9.80;;;4.85;;
45254;SDS011;30989;52.078;21.014;2023-07-29T02:10:46;10.15;;;5.28;;
45254;SDS011;30989;52.078;21.014;2023-07-29T02:13:13;7.97;;;5.10;;
45254;SDS011;30989;52.078;21.014;2023-07-29T02:15:39;9.07;;;5.05;;
45254;SDS011;30989;52.078;21.014;2023-07-29T02:18:05;10.18;;;5.63;;
45254;SDS011;30989;52.078;21.014;2023-07-29T02:20:31;10.60;;;6.25;;
45254;SDS011;30989;52.078;21.014;2023-07-29T02:22:57;10.88;;;6.60;;
45254;SDS011;30989;52.078;21.014;2023-07-29T02:25:22;12.80;;;6.95;;
45254;SDS011;30989;52.078;21.014;2023-07-29T02:27:48;13.05;;;7.93;;
45254;SDS011;30989;52.078;21.014;2023-07-29T02:30:13;13.00;;;7.38;;
45254;SDS011;30989;52.078;21.014;2023-07-29T02:32:39;12.93;;;6.85;;
45254;SDS011;30989;52.078;21.014;2023-07-29T02:35:05;11.35;;;7.35;;
45254;SDS011;30989;52.078;21.014;2023-07-29T02:37:31;10.95;;;7.68;;
45254;SDS011;30989;52.078;21.014;2023-07-29T02:39:57;14.32;;;8.23;;
45254;SDS011;30989;52.078;21.014;2023-07-29T02:42:22;14.18;;;7.15;;
45254;SDS011;30989;52.078;21.014;2023-07-29T02:44:47;11.55;;;7.95;;
45254;SDS011;30989;52.078;21.014;2023-07-29T02:47:13;12.35;;;7.70;;
45254;SDS011;30989;52.078;21.014;2023-07-29T02:49:38;14.52;;;7.90;;
45254;SDS011;30989;52.078;21.014;2023-07-29T02:52:04;12.95;;;8.35;;
45254;SDS011;30989;52.078;21.014;2023-07-29T02:54:31;17.13;;;7.88;;
45254;SDS011;30989;52.078;21.014;2023-07-29T02:56:56;10.60;;;7.93;;
45254;SDS011;30989;52.078;21.014;2023-07-29T02:59:22;13.32;;;7.82;;
45254;SDS011;30989;52.078;21.014;2023-07-29T03:01:47;13.65;;;7.30;;
45254;SDS011;30989;52.078;21.014;2023-07-29T03:04:13;16.35;;;9.40;;
45254;SDS011;30989;52.078;21.014;2023-07-29T03:06:38;11.20;;;6.88;;
45254;SDS011;30989;52.078;21.014;2023-07-29T03:09:04;13.63;;;7.30;;
45254;SDS011;30989;52.078;21.014;2023-07-29T03:11:30;12.65;;;6.95;;
45254;SDS011;30989;52.078;21.014;2023-07-29T03:13:56;15.65;;;8.98;;
45254;SDS011;30989;52.078;21.014;2023-07-29T03:16:22;11.65;;;7.45;;
45254;SDS011;30989;52.078;21.014;2023-07-29T03:18:52;12.75;;;7.93;;
45254;SDS011;30989;52.078;21.014;2023-07-29T03:21:17;15.23;;;8.27;;
45254;SDS011;30989;52.078;21.014;2023-07-29T03:23:43;14.60;;;7.90;;
45254;SDS011;30989;52.078;21.014;2023-07-29T03:26:08;14.70;;;8.52;;
45254;SDS011;30989;52.078;21.014;2023-07-29T03:28:38;13.93;;;8.05;;
45254;SDS011;30989;52.078;21.014;2023-07-29T03:31:05;16.50;;;8.02;;
45254;SDS011;30989;52.078;21.014;2023-07-29T03:33:32;13.73;;;9.18;;
45254;SDS011;30989;52.078;21.014;2023-07-29T03:35:57;12.52;;;8.25;;
45254;SDS011;30989;52.078;21.014;2023-07-29T03:38:23;17.60;;;8.75;;
45254;SDS011;30989;52.078;21.014;2023-07-29T03:40:49;20.60;;;8.50;;
45254;SDS011;30989;52.078;21.014;2023-07-29T03:43:15;16.08;;;9.05;;
45254;SDS011;30989;52.078;21.014;2023-07-29T03:45:41;17.02;;;8.98;;
45254;SDS011;30989;52.078;21.014;2023-07-29T03:48:07;19.65;;;9.18;;
45254;SDS011;30989;52.078;21.014;2023-07-29T03:50:33;17.85;;;9.30;;
45254;SDS011;30989;52.078;21.014;2023-07-29T03:53:03;13.48;;;7.82;;
45254;SDS011;30989;52.078;21.014;2023-07-29T03:55:29;17.05;;;9.57;;
45254;SDS011;30989;52.078;21.014;2023-07-29T03:57:57;20.42;;;8.98;;
45254;SDS011;30989;52.078;21.014;2023-07-29T04:00:23;16.38;;;8.93;;
45254;SDS011;30989;52.078;21.014;2023-07-29T04:02:49;16.80;;;10.48;;
45254;SDS011;30989;52.078;21.014;2023-07-29T04:05:15;17.23;;;9.88;;
45254;SDS011;30989;52.078;21.014;2023-07-29T04:07:41;16.23;;;9.40;;
45254;SDS011;30989;52.078;21.014;2023-07-29T04:10:06;15.35;;;9.68;;
45254;SDS011;30989;52.078;21.014;2023-07-29T04:12:32;13.77;;;8.80;;
45254;SDS011;30989;52.078;21.014;2023-07-29T04:14:58;14.55;;;9.60;;
45254;SDS011;30989;52.078;21.014;2023-07-29T04:17:23;14.02;;;8.82;;
45254;SDS011;30989;52.078;21.014;2023-07-29T04:19:49;16.50;;;9.77;;
45254;SDS011;30989;52.078;21.014;2023-07-29T04:22:15;15.98;;;9.70;;
45254;SDS011;30989;52.078;21.014;2023-07-29T04:24:41;15.25;;;9.25;;
45254;SDS011;30989;52.078;21.014;2023-07-29T04:27:07;18.30;;;8.77;;
45254;SDS011;30989;52.078;21.014;2023-07-29T04:29:33;15.68;;;9.30;;
45254;SDS011;30989;52.078;21.014;2023-07-29T04:32:00;17.27;;;9.90;;
45254;SDS011;30989;52.078;21.014;2023-07-29T04:34:26;12.88;;;8.05;;
45254;SDS011;30989;52.078;21.014;2023-07-29T04:36:52;13.68;;;8.48;;
45254;SDS011;30989;52.078;21.014;2023-07-29T04:39:17;16.45;;;8.88;;
45254;SDS011;30989;52.078;21.014;2023-07-29T04:41:43;14.30;;;8.65;;
45254;SDS011;30989;52.078;21.014;2023-07-29T04:44:08;15.18;;;8.70;;
45254;SDS011;30989;52.078;21.014;2023-07-29T04:46:35;11.45;;;7.75;;
45254;SDS011;30989;52.078;21.014;2023-07-29T04:49:01;12.88;;;7.88;;
45254;SDS011;30989;52.078;21.014;2023-07-29T04:51:27;12.43;;;8.48;;
45254;SDS011;30989;52.078;21.014;2023-07-29T04:53:53;12.70;;;8.05;;
45254;SDS011;30989;52.078;21.014;2023-07-29T04:56:19;15.45;;;7.72;;
45254;SDS011;30989;52.078;21.014;2023-07-29T04:58:44;10.73;;;7.60;;
45254;SDS011;30989;52.078;21.014;2023-07-29T05:01:10;16.17;;;7.85;;
45254;SDS011;30989;52.078;21.014;2023-07-29T05:03:35;10.70;;;7.40;;
45254;SDS011;30989;52.078;21.014;2023-07-29T05:06:04;11.88;;;7.63;;
45254;SDS011;30989;52.078;21.014;2023-07-29T05:08:29;10.00;;;7.18;;
45254;SDS011;30989;52.078;21.014;2023-07-29T05:10:55;14.65;;;7.80;;
45254;SDS011;30989;52.078;21.014;2023-07-29T05:13:21;9.55;;;6.65;;
45254;SDS011;30989;52.078;21.014;2023-07-29T05:15:48;11.88;;;8.10;;
45254;SDS011;30989;52.078;21.014;2023-07-29T05:18:14;11.20;;;7.45;;
45254;SDS011;30989;52.078;21.014;2023-07-29T05:20:40;11.93;;;7.10;;
45254;SDS011;30989;52.078;21.014;2023-07-29T05:23:05;10.73;;;7.22;;
45254;SDS011;30989;52.078;21.014;2023-07-29T05:25:31;10.35;;;6.40;;
45254;SDS011;30989;52.078;21.014;2023-07-29T05:27:57;11.55;;;6.70;;
45254;SDS011;30989;52.078;21.014;2023-07-29T05:30:22;13.77;;;6.75;;
45254;SDS011;30989;52.078;21.014;2023-07-29T05:32:48;10.52;;;6.22;;
45254;SDS011;30989;52.078;21.014;2023-07-29T05:35:14;11.15;;;7.25;;
45254;SDS011;30989;52.078;21.014;2023-07-29T05:37:40;10.25;;;6.65;;
45254;SDS011;30989;52.078;21.014;2023-07-29T05:40:06;9.32;;;5.55;;
45254;SDS011;30989;52.078;21.014;2023-07-29T05:42:33;10.07;;;6.38;;
45254;SDS011;30989;52.078;21.014;2023-07-29T05:44:58;8.75;;;6.10;;
45254;SDS011;30989;52.078;21.014;2023-07-29T05:47:24;9.52;;;7.25;;
45254;SDS011;30989;52.078;21.014;2023-07-29T05:49:49;9.55;;;6.90;;
45254;SDS011;30989;52.078;21.014;2023-07-29T05:52:15;18.05;;;7.65;;
45254;SDS011;30989;52.078;21.014;2023-07-29T05:54:40;12.90;;;6.70;;
45254;SDS011;30989;52.078;21.014;2023-07-29T05:57:08;9.52;;;6.50;;
45254;SDS011;30989;52.078;21.014;2023-07-29T05:59:34;8.32;;;5.47;;
45254;SDS011;30989;52.078;21.014;2023-07-29T06:02:00;8.95;;;5.75;;
45254;SDS011;30989;52.078;21.014;2023-07-29T06:04:25;11.55;;;5.97;;
45254;SDS011;30989;52.078;21.014;2023-07-29T06:06:51;9.02;;;5.80;;
45254;SDS011;30989;52.078;21.014;2023-07-29T06:09:16;8.23;;;5.80;;
45254;SDS011;30989;52.078;21.014;2023-07-29T06:11:42;8.27;;;5.85;;
45254;SDS011;30989;52.078;21.014;2023-07-29T06:14:07;9.38;;;6.22;;
45254;SDS011;30989;52.078;21.014;2023-07-29T06:16:33;7.40;;;5.18;;
45254;SDS011;30989;52.078;21.014;2023-07-29T06:18:58;8.65;;;5.20;;
45254;SDS011;30989;52.078;21.014;2023-07-29T06:21:24;13.43;;;7.05;;
45254;SDS011;30989;52.078;21.014;2023-07-29T06:23:49;11.90;;;8.18;;
45254;SDS011;30989;52.078;21.014;2023-07-29T06:26:15;10.00;;;5.53;;
45254;SDS011;30989;52.078;21.014;2023-07-29T06:28:40;6.18;;;4.80;;
45254;SDS011;30989;52.078;21.014;2023-07-29T06:31:05;6.50;;;4.80;;
45254;SDS011;30989;52.078;21.014;2023-07-29T06:33:31;7.85;;;5.22;;
45254;SDS011;30989;52.078;21.014;2023-07-29T06:35:57;7.43;;;5.20;;
45254;SDS011;30989;52.078;21.014;2023-07-29T06:38:22;8.45;;;4.90;;
45254;SDS011;30989;52.078;21.014;2023-07-29T06:40:48;7.53;;;5.55;;
45254;SDS011;30989;52.078;21.014;2023-07-29T06:43:14;7.15;;;4.88;;
45254;SDS011;30989;52.078;21.014;2023-07-29T06:45:39;9.13;;;4.82;;
45254;SDS011;30989;52.078;21.014;2023-07-29T06:48:05;8.50;;;4.75;;
45254;SDS011;30989;52.078;21.014;2023-07-29T06:50:30;7.15;;;4.63;;
45254;SDS011;30989;52.078;21.014;2023-07-29T06:52:56;8.00;;;4.82;;
45254;SDS011;30989;52.078;21.014;2023-07-29T06:55:21;8.43;;;4.57;;
45254;SDS011;30989;52.078;21.014;2023-07-29T06:57:47;7.28;;;4.38;;
45254;SDS011;30989;52.078;21.014;2023-07-29T07:00:12;6.40;;;4.50;;
45254;SDS011;30989;52.078;21.014;2023-07-29T07:02:38;5.90;;;3.63;;
45254;SDS011;30989;52.078;21.014;2023-07-29T07:05:03;6.85;;;4.35;;
45254;SDS011;30989;52.078;21.014;2023-07-29T07:07:29;6.43;;;3.70;;
45254;SDS011;30989;52.078;21.014;2023-07-29T07:09:55;6.22;;;4.05;;
45254;SDS011;30989;52.078;21.014;2023-07-29T07:12:20;6.72;;;3.85;;
45254;SDS011;30989;52.078;21.014;2023-07-29T07:14:46;6.13;;;3.95;;
45254;SDS011;30989;52.078;21.014;2023-07-29T07:17:12;14.57;;;4.70;;
45254;SDS011;30989;52.078;21.014;2023-07-29T07:19:37;9.82;;;5.03;;
45254;SDS011;30989;52.078;21.014;2023-07-29T07:22:03;7.72;;;4.90;;
45254;SDS011;30989;52.078;21.014;2023-07-29T07:24:29;6.55;;;3.67;;
45254;SDS011;30989;52.078;21.014;2023-07-29T07:26:54;12.23;;;5.85;;
45254;SDS011;30989;52.078;21.014;2023-07-29T07:29:20;7.78;;;3.65;;
45254;SDS011;30989;52.078;21.014;2023-07-29T07:31:49;4.65;;;3.40;;
45254;SDS011;30989;52.078;21.014;2023-07-29T07:34:17;6.55;;;3.97;;
45254;SDS011;30989;52.078;21.014;2023-07-29T07:36:43;6.22;;;3.83;;
45254;SDS011;30989;52.078;21.014;2023-07-29T07:39:08;4.45;;;2.83;;
45254;SDS011;30989;52.078;21.014;2023-07-29T07:41:36;5.85;;;3.13;;
45254;SDS011;30989;52.078;21.014;2023-07-29T07:44:02;5.93;;;2.83;;
45254;SDS011;30989;52.078;21.014;2023-07-29T07:46:28;5.05;;;2.58;;
45254;SDS011;30989;52.078;21.014;2023-07-29T07:48:53;6.78;;;3.25;;
45254;SDS011;30989;52.078;21.014;2023-07-29T07:51:19;4.35;;;3.03;;
45254;SDS011;30989;52.078;21.014;2023-07-29T07:53:44;4.63;;;2.75;;
45254;SDS011;30989;52.078;21.014;2023-07-29T07:56:09;4.97;;;2.88;;
45254;SDS011;30989;52.078;21.014;2023-07-29T07:58:35;3.95;;;2.83;;
45254;SDS011;30989;52.078;21.014;2023-07-29T08:01:04;4.78;;;2.20;;
45254;SDS011;30989;52.078;21.014;2023-07-29T08:03:30;6.28;;;3.38;;
45254;SDS011;30989;52.078;21.014;2023-07-29T08:05:56;3.35;;;2.22;;
45254;SDS011;30989;52.078;21.014;2023-07-29T08:08:21;5.63;;;2.90;;
45254;SDS011;30989;52.078;21.014;2023-07-29T08:10:47;5.22;;;3.15;;
45254;SDS011;30989;52.078;21.014;2023-07-29T08:13:12;4.07;;;2.63;;
45254;SDS011;30989;52.078;21.014;2023-07-29T08:15:37;3.85;;;2.42;;
45254;SDS011;30989;52.078;21.014;2023-07-29T08:18:03;4.63;;;3.35;;
45254;SDS011;30989;52.078;21.014;2023-07-29T08:20:28;4.03;;;2.83;;
45254;SDS011;30989;52.078;21.014;2023-07-29T08:22:54;4.95;;;2.60;;
45254;SDS011;30989;52.078;21.014;2023-07-29T08:25:19;4.55;;;2.00;;
45254;SDS011;30989;52.078;21.014;2023-07-29T08:27:45;3.13;;;1.80;;
45254;SDS011;30989;52.078;21.014;2023-07-29T08:30:10;5.07;;;2.25;;
45254;SDS011;30989;52.078;21.014;2023-07-29T08:32:36;3.50;;;2.00;;
45254;SDS011;30989;52.078;21.014;2023-07-29T08:35:01;6.68;;;2.40;;
45254;SDS011;30989;52.078;21.014;2023-07-29T08:37:27;3.50;;;2.17;;
45254;SDS011;30989;52.078;21.014;2023-07-29T08:39:52;5.03;;;1.90;;
45254;SDS011;30989;52.078;21.014;2023-07-29T08:42:19;4.65;;;2.20;;
45254;SDS011;30989;52.078;21.014;2023-07-29T08:44:45;4.50;;;2.10;;
45254;SDS011;30989;52.078;21.014;2023-07-29T08:47:14;3.78;;;1.83;;
45254;SDS011;30989;52.078;21.014;2023-07-29T08:49:40;3.35;;;1.83;;
45254;SDS011;30989;52.078;21.014;2023-07-29T08:52:07;3.55;;;1.83;;
45254;SDS011;30989;52.078;21.014;2023-07-29T08:54:33;3.67;;;1.70;;
45254;SDS011;30989;52.078;21.014;2023-07-29T08:56:59;2.78;;;1.60;;
45254;SDS011;30989;52.078;21.014;2023-07-29T08:59:25;2.75;;;1.67;;
45254;SDS011;30989;52.078;21.014;2023-07-29T09:01:51;3.67;;;1.42;;
45254;SDS011;30989;52.078;21.014;2023-07-29T09:04:20;3.17;;;1.75;;
45254;SDS011;30989;52.078;21.014;2023-07-29T09:06:47;5.38;;;2.60;;
45254;SDS011;30989;52.078;21.014;2023-07-29T09:09:15;2.38;;;1.30;;
45254;SDS011;30989;52.078;21.014;2023-07-29T09:11:43;3.00;;;1.90;;
45254;SDS011;30989;52.078;21.014;2023-07-29T09:14:09;4.40;;;1.98;;
45254;SDS011;30989;52.078;21.014;2023-07-29T09:16:35;3.05;;;1.75;;
45254;SDS011;30989;52.078;21.014;2023-07-29T09:19:01;3.80;;;1.85;;
45254;SDS011;30989;52.078;21.014;2023-07-29T09:21:28;3.30;;;1.50;;
45254;SDS011;30989;52.078;21.014;2023-07-29T09:23:54;4.63;;;1.67;;
45254;SDS011;30989;52.078;21.014;2023-07-29T09:26:24;2.55;;;1.40;;
45254;SDS011;30989;52.078;21.014;2023-07-29T09:28:54;5.03;;;1.85;;
45254;SDS011;30989;52.078;21.014;2023-07-29T09:31:24;3.28;;;1.63;;
45254;SDS011;30989;52.078;21.014;2023-07-29T09:34:00;4.85;;;1.90;;
45254;SDS011;30989;52.078;21.014;2023-07-29T09:36:30;3.58;;;2.13;;
45254;SDS011;30989;52.078;21.014;2023-07-29T09:38:57;4.07;;;1.90;;
45254;SDS011;30989;52.078;21.014;2023-07-29T09:41:25;3.22;;;1.70;;
45254;SDS011;30989;52.078;21.014;2023-07-29T09:43:56;2.50;;;1.75;;
45254;SDS011;30989;52.078;21.014;2023-07-29T09:46:35;4.43;;;1.55;;
45254;SDS011;30989;52.078;21.014;2023-07-29T09:49:02;2.88;;;1.30;;
45254;SDS011;30989;52.078;21.014;2023-07-29T09:51:36;3.30;;;1.30;;
45254;SDS011;30989;52.078;21.014;2023-07-29T09:56:29;2.35;;;1.45;;
45254;SDS011;30989;52.078;21.014;2023-07-29T09:58:55;3.92;;;1.65;;
45254;SDS011;30989;52.078;21.014;2023-07-29T10:01:22;3.05;;;1.52;;
45254;SDS011;30989;52.078;21.014;2023-07-29T10:03:48;3.03;;;1.70;;
45254;SDS011;30989;52.078;21.014;2023-07-29T10:06:14;3.17;;;1.83;;
45254;SDS011;30989;52.078;21.014;2023-07-29T10:08:40;3.17;;;1.52;;
45254;SDS011;30989;52.078;21.014;2023-07-29T10:11:08;2.75;;;1.35;;
45254;SDS011;30989;52.078;21.014;2023-07-29T10:13:35;2.67;;;1.52;;
45254;SDS011;30989;52.078;21.014;2023-07-29T10:16:01;2.45;;;1.55;;
45254;SDS011;30989;52.078;21.014;2023-07-29T10:18:27;3.00;;;1.55;;
45254;SDS011;30989;52.078;21.014;2023-07-29T10:20:53;3.33;;;1.92;;
45254;SDS011;30989;52.078;21.014;2023-07-29T10:23:25;4.60;;;2.85;;
45254;SDS011;30989;52.078;21.014;2023-07-29T10:25:54;3.40;;;1.63;;
45254;SDS011;30989;52.078;21.014;2023-07-29T10:28:26;4.30;;;2.17;;
45254;SDS011;30989;52.078;21.014;2023-07-29T10:30:54;6.13;;;1.95;;
45254;SDS011;30989;52.078;21.014;2023-07-29T10:33:22;4.20;;;1.30;;
45254;SDS011;30989;52.078;21.014;2023-07-29T10:35:47;2.50;;;1.25;;
45254;SDS011;30989;52.078;21.014;2023-07-29T10:38:13;3.97;;;1.55;;
45254;SDS011;30989;52.078;21.014;2023-07-29T10:40:57;3.03;;;1.40;;
45254;SDS011;30989;52.078;21.014;2023-07-29T10:43:32;3.72;;;1.50;;
45254;SDS011;30989;52.078;21.014;2023-07-29T10:46:14;2.72;;;1.60;;
45254;SDS011;30989;52.078;21.014;2023-07-29T10:48:55;2.45;;;1.58;;
45254;SDS011;30989;52.078;21.014;2023-07-29T10:51:34;4.75;;;1.40;;
45254;SDS011;30989;52.078;21.014;2023-07-29T10:54:11;2.13;;;1.35;;
45254;SDS011;30989;52.078;21.014;2023-07-29T10:56:43;2.50;;;1.45;;
45254;SDS011;30989;52.078;21.014;2023-07-29T11:01:38;2.08;;;1.20;;
45254;SDS011;30989;52.078;21.014;2023-07-29T11:09:54;2.60;;;1.50;;
45254;SDS011;30989;52.078;21.014;2023-07-29T11:15:12;3.10;;;1.50;;
45254;SDS011;30989;52.078;21.014;2023-07-29T11:17:39;2.80;;;1.20;;
45254;SDS011;30989;52.078;21.014;2023-07-29T11:20:09;2.92;;;1.50;;
45254;SDS011;30989;52.078;21.014;2023-07-29T11:22:36;2.10;;;1.30;;
45254;SDS011;30989;52.078;21.014;2023-07-29T11:25:02;2.65;;;1.50;;
45254;SDS011;30989;52.078;21.014;2023-07-29T11:27:27;8.30;;;4.30;;
45254;SDS011;30989;52.078;21.014;2023-07-29T11:30:03;3.63;;;2.10;;
45254;SDS011;30989;52.078;21.014;2023-07-29T11:32:31;4.32;;;1.55;;
45254;SDS011;30989;52.078;21.014;2023-07-29T11:35:01;5.57;;;1.45;;
45254;SDS011;30989;52.078;21.014;2023-07-29T11:37:35;3.00;;;1.40;;
45254;SDS011;30989;52.078;21.014;2023-07-29T11:40:01;2.28;;;1.30;;
45254;SDS011;30989;52.078;21.014;2023-07-29T11:42:27;2.17;;;1.35;;
45254;SDS011;30989;52.078;21.014;2023-07-29T11:44:57;2.85;;;1.40;;
45254;SDS011;30989;52.078;21.014;2023-07-29T11:47:23;2.15;;;1.40;;
45254;SDS011;30989;52.078;21.014;2023-07-29T11:49:49;3.03;;;1.30;;
45254;SDS011;30989;52.078;21.014;2023-07-29T11:52:14;2.70;;;1.63;;
45254;SDS011;30989;52.078;21.014;2023-07-29T11:54:44;2.47;;;1.30;;
45254;SDS011;30989;52.078;21.014;2023-07-29T11:57:09;5.32;;;1.10;;
45254;SDS011;30989;52.078;21.014;2023-07-29T11:59:42;2.20;;;1.02;;
45254;SDS011;30989;52.078;21.014;2023-07-29T12:02:09;2.22;;;1.17;;
45254;SDS011;30989;52.078;21.014;2023-07-29T12:04:39;2.80;;;1.60;;
45254;SDS011;30989;52.078;21.014;2023-07-29T12:07:06;3.03;;;1.70;;
45254;SDS011;30989;52.078;21.014;2023-07-29T12:09:33;3.55;;;1.50;;
45254;SDS011;30989;52.078;21.014;2023-07-29T12:12:00;2.80;;;1.40;;
45254;SDS011;30989;52.078;21.014;2023-07-29T12:14:26;4.13;;;1.60;;
45254;SDS011;30989;52.078;21.014;2023-07-29T12:16:54;3.72;;;1.10;;
45254;SDS011;30989;52.078;21.014;2023-07-29T12:19:19;2.55;;;1.10;;
45254;SDS011;30989;52.078;21.014;2023-07-29T12:21:47;2.85;;;1.50;;
45254;SDS011;30989;52.078;21.014;2023-07-29T12:24:13;6.38;;;1.40;;
45254;SDS011;30989;52.078;21.014;2023-07-29T12:26:39;1.75;;;1.10;;
45254;SDS011;30989;52.078;21.014;2023-07-29T12:29:16;2.92;;;1.13;;
45254;SDS011;30989;52.078;21.014;2023-07-29T12:31:44;2.03;;;1.23;;
45254;SDS011;30989;52.078;21.014;2023-07-29T12:34:16;2.10;;;1.10;;
45254;SDS011;30989;52.078;21.014;2023-07-29T12:36:44;2.45;;;1.27;;
45254;SDS011;30989;52.078;21.014;2023-07-29T12:41:49;2.83;;;1.10;;
45254;SDS011;30989;52.078;21.014;2023-07-29T12:44:15;11.00;;;6.30;;
45254;SDS011;30989;52.078;21.014;2023-07-29T12:46:41;2.80;;;1.60;;
45254;SDS011;30989;52.078;21.014;2023-07-29T12:49:06;2.33;;;1.30;;
45254;SDS011;30989;52.078;21.014;2023-07-29T12:51:32;5.32;;;1.10;;
45254;SDS011;30989;52.078;21.014;2023-07-29T12:53:58;2.63;;;1.30;;
45254;SDS011;30989;52.078;21.014;2023-07-29T12:56:26;2.85;;;1.35;;
45254;SDS011;30989;52.078;21.014;2023-07-29T12:58:52;2.45;;;1.30;;
45254;SDS011;30989;52.078;21.014;2023-07-29T13:01:17;4.68;;;1.30;;
45254;SDS011;30989;52.078;21.014;2023-07-29T13:03:47;2.58;;;1.17;;
45254;SDS011;30989;52.078;21.014;2023-07-29T13:06:13;3.05;;;1.05;;
45254;SDS011;30989;52.078;21.014;2023-07-29T13:08:38;2.22;;;0.85;;
45254;SDS011;30989;52.078;21.014;2023-07-29T13:11:04;1.95;;;1.00;;
45254;SDS011;30989;52.078;21.014;2023-07-29T13:13:29;2.38;;;1.10;;
45254;SDS011;30989;52.078;21.014;2023-07-29T13:15:55;1.98;;;1.00;;
45254;SDS011;30989;52.078;21.014;2023-07-29T13:18:21;2.42;;;1.25;;
45254;SDS011;30989;52.078;21.014;2023-07-29T13:20:47;1.83;;;1.00;;
45254;SDS011;30989;52.078;21.014;2023-07-29T13:23:13;3.00;;;1.13;;
45254;SDS011;30989;52.078;21.014;2023-07-29T13:25:38;2.13;;;1.40;;
45254;SDS011;30989;52.078;21.014;2023-07-29T13:28:04;3.22;;;1.10;;
45254;SDS011;30989;52.078;21.014;2023-07-29T13:30:30;2.17;;;1.00;;
45254;SDS011;30989;52.078;21.014;2023-07-29T13:32:56;2.05;;;1.10;;
45254;SDS011;30989;52.078;21.014;2023-07-29T13:35:21;5.80;;;1.30;;
45254;SDS011;30989;52.078;21.014;2023-07-29T13:37:47;1.77;;;1.00;;
45254;SDS011;30989;52.078;21.014;2023-07-29T13:40:12;6.45;;;1.05;;
45254;SDS011;30989;52.078;21.014;2023-07-29T13:42:37;1.52;;;0.80;;
45254;SDS011;30989;52.078;21.014;2023-07-29T13:45:03;2.38;;;1.00;;
45254;SDS011;30989;52.078;21.014;2023-07-29T13:47:29;2.20;;;1.20;;
45254;SDS011;30989;52.078;21.014;2023-07-29T13:49:54;1.58;;;0.90;;
45254;SDS011;30989;52.078;21.014;2023-07-29T13:52:19;2.42;;;1.10;;
45254;SDS011;30989;52.078;21.014;2023-07-29T13:54:45;2.15;;;1.00;;
45254;SDS011;30989;52.078;21.014;2023-07-29T13:57:10;1.42;;;0.80;;
45254;SDS011;30989;52.078;21.014;2023-07-29T13:59:36;2.42;;;1.20;;
45254;SDS011;30989;52.078;21.014;2023-07-29T14:02:04;1.88;;;0.90;;
45254;SDS011;30989;52.078;21.014;2023-07-29T14:04:33;2.38;;;1.40;;
45254;SDS011;30989;52.078;21.014;2023-07-29T14:06:59;2.45;;;1.20;;
45254;SDS011;30989;52.078;21.014;2023-07-29T14:09:25;1.80;;;1.08;;
45254;SDS011;30989;52.078;21.014;2023-07-29T14:11:51;4.13;;;2.67;;
45254;SDS011;30989;52.078;21.014;2023-07-29T14:14:20;3.28;;;1.95;;
45254;SDS011;30989;52.078;21.014;2023-07-29T14:16:45;4.00;;;1.90;;
45254;SDS011;30989;52.078;21.014;2023-07-29T14:19:12;6.05;;;1.77;;
45254;SDS011;30989;52.078;21.014;2023-07-29T14:21:37;2.78;;;1.13;;
45254;SDS011;30989;52.078;21.014;2023-07-29T14:24:03;9.75;;;2.63;;
45254;SDS011;30989;52.078;21.014;2023-07-29T14:26:28;4.03;;;1.75;;
45254;SDS011;30989;52.078;21.014;2023-07-29T14:28:53;2.60;;;1.08;;
45254;SDS011;30989;52.078;21.014;2023-07-29T14:31:19;6.32;;;1.20;;
45254;SDS011;30989;52.078;21.014;2023-07-29T14:33:44;6.05;;;1.55;;
45254;SDS011;30989;52.078;21.014;2023-07-29T14:36:10;2.17;;;1.20;;
45254;SDS011;30989;52.078;21.014;2023-07-29T14:38:35;2.03;;;1.25;;
45254;SDS011;30989;52.078;21.014;2023-07-29T14:41:02;2.83;;;1.20;;
45254;SDS011;30989;52.078;21.014;2023-07-29T14:43:30;1.92;;;1.23;;
45254;SDS011;30989;52.078;21.014;2023-07-29T14:45:56;7.47;;;3.67;;
45254;SDS011;30989;52.078;21.014;2023-07-29T14:48:21;4.25;;;2.17;;
45254;SDS011;30989;52.078;21.014;2023-07-29T14:50:47;3.08;;;1.30;;